Time;durP1;ratioP1;P1;durP2;ratioP2;P2;SDS_P1;SDS_P2;PMS_P1;PMS_P2;Temp;Humidity;BMP_temperature;BMP_pressure;BME280_temperature;BME280_humidity;BME280_pressure;Samples;Min_cycle;Max_cycle;Signal;HPM_P1;HPM_P2
2021/05/05 00:00:49;;;;;;;5.97;2.45;;;15.60;96.70;;;;;;4915876;29;20052;-77
2021/05/05 00:03:18;;;;;;;4.80;2.05;;;15.60;96.70;;;;;;4903650;29;20513;-76
2021/05/05 00:06:17;;;;;;;4.80;1.80;;;15.60;96.70;;;;;;4914022;29;20052;-76
2021/05/05 00:08:46;;;;;;;3.28;1.55;;;15.60;96.70;;;;;;4917706;29;20065;-76
2021/05/05 00:11:15;;;;;;;4.93;2.10;;;15.60;96.70;;;;;;4927900;29;20044;-76
2021/05/05 00:13:45;;;;;;;4.32;1.83;;;15.60;96.70;;;;;;4919858;29;20054;-77
2021/05/05 00:16:15;;;;;;;7.53;2.22;;;15.50;96.70;;;;;;4923183;29;20112;-76
2021/05/05 00:18:44;;;;;;;3.33;1.80;;;15.50;96.70;;;;;;4922088;29;20047;-76
2021/05/05 00:21:14;;;;;;;4.38;1.88;;;15.50;96.70;;;;;;4905377;29;20048;-77
2021/05/05 00:23:45;;;;;;;4.32;1.90;;;15.50;96.70;;;;;;4920639;29;20344;-77
2021/05/05 00:26:14;;;;;;;5.28;2.03;;;15.50;96.70;;;;;;4923621;29;20398;-77
2021/05/05 00:28:43;;;;;;;5.40;2.13;;;15.50;96.70;;;;;;4923001;29;20141;-77
2021/05/05 00:31:15;;;;;;;3.05;1.90;;;15.40;96.70;;;;;;4926872;29;20059;-76
2021/05/05 00:33:44;;;;;;;3.85;2.17;;;15.30;96.70;;;;;;4922795;29;20595;-77
2021/05/05 00:36:14;;;;;;;2.92;1.90;;;15.30;96.70;;;;;;4916932;29;20258;-77
2021/05/05 00:38:46;;;;;;;4.53;2.08;;;15.30;96.70;;;;;;4918970;29;20151;-75
2021/05/05 00:41:17;;;;;;;4.60;2.40;;;15.30;96.70;;;;;;4928289;29;20110;-74
2021/05/05 00:43:47;;;;;;;2.97;1.85;;;15.30;96.70;;;;;;4903539;29;20048;-74
2021/05/05 00:46:17;;;;;;;4.47;1.75;;;15.30;96.70;;;;;;4913683;29;20697;-74
2021/05/05 00:48:47;;;;;;;4.28;1.70;;;15.20;96.70;;;;;;4925021;29;20039;-74
2021/05/05 00:51:16;;;;;;;3.65;1.92;;;15.20;96.70;;;;;;4924559;29;20510;-74
2021/05/05 00:53:47;;;;;;;3.78;2.10;;;15.10;96.70;;;;;;4926312;28;20107;-74
2021/05/05 00:56:17;;;;;;;3.97;2.13;;;15.00;96.70;;;;;;4926096;29;20509;-74
2021/05/05 00:58:47;;;;;;;2.95;1.92;;;15.10;96.70;;;;;;4912271;29;20051;-74
2021/05/05 01:01:17;;;;;;;3.78;2.00;;;15.00;96.70;;;;;;4924844;29;20493;-74
2021/05/05 01:03:47;;;;;;;2.65;1.58;;;15.00;96.70;;;;;;4912473;29;20101;-75
2021/05/05 01:06:17;;;;;;;4.45;2.00;;;15.10;96.70;;;;;;4938197;28;20138;-74
2021/05/05 01:08:49;;;;;;;6.05;1.83;;;15.10;96.70;;;;;;4925824;29;20656;-74
2021/05/05 01:11:19;;;;;;;4.65;1.80;;;15.20;96.70;;;;;;4942097;28;20051;-74
2021/05/05 01:13:49;;;;;;;3.80;2.30;;;15.10;96.70;;;;;;4928423;28;20502;-74
2021/05/05 01:16:19;;;;;;;4.82;2.15;;;15.10;96.70;;;;;;4927521;29;20039;-74
2021/05/05 01:18:51;;;;;;;4.78;2.08;;;15.00;96.70;;;;;;4931339;29;20306;-74
2021/05/05 01:21:27;;;;;;;3.40;2.10;;;15.00;96.70;;;;;;4947505;28;20179;-74
2021/05/05 01:27:22;;;;;;;3.95;2.08;;;15.00;96.70;;;;;;4947875;28;20482;-74
2021/05/05 01:30:13;;;;;;;4.10;1.60;;;15.00;96.70;;;;;;4943553;28;20039;-74
2021/05/05 01:32:41;;;;;;;3.08;1.70;;;15.10;96.70;;;;;;4945821;28;20140;-74
2021/05/05 01:35:11;;;;;;;4.15;1.90;;;15.10;96.70;;;;;;4928466;29;20040;-74
2021/05/05 01:37:43;;;;;;;2.58;1.80;;;15.10;96.70;;;;;;4924888;28;20043;-74
2021/05/05 01:40:21;;;;;;;2.97;1.40;;;15.20;96.70;;;;;;4927690;28;20177;-74
2021/05/05 01:42:52;;;;;;;3.10;1.40;;;15.20;96.70;;;;;;4932510;28;20043;-75
2021/05/05 01:45:22;;;;;;;4.03;1.75;;;15.10;96.70;;;;;;4929155;29;20050;-75
2021/05/05 01:47:55;;;;;;;2.92;1.60;;;15.20;96.70;;;;;;4928799;28;20047;-74
2021/05/05 01:50:24;;;;;;;2.33;1.50;;;15.10;96.70;;;;;;4935939;28;20054;-74
2021/05/05 01:52:53;;;;;;;1.95;1.20;;;15.10;96.70;;;;;;4923388;28;20071;-75
2021/05/05 01:55:22;;;;;;;3.80;1.30;;;15.10;96.70;;;;;;4929982;28;20039;-74
2021/05/05 01:57:50;;;;;;;2.13;1.20;;;15.10;96.70;;;;;;4928744;28;20407;-74
2021/05/05 02:04:02;;;;;;;3.53;1.30;;;15.00;96.70;;;;;;4927579;28;20134;-74
2021/05/05 02:06:56;;;;;;;2.35;1.35;;;14.90;96.70;;;;;;4921724;29;20055;-74
2021/05/05 02:09:43;;;;;;;3.63;1.60;;;14.90;96.70;;;;;;4927705;28;20163;-74
2021/05/05 02:12:14;;;;;;;3.92;1.60;;;14.80;96.70;;;;;;4918422;29;20051;-73
2021/05/05 02:14:46;;;;;;;1.25;1.15;;;14.80;96.70;;;;;;4910539;29;20078;-75
2021/05/05 02:17:18;;;;;;;3.50;1.35;;;14.70;96.70;;;;;;4927566;29;20549;-74
2021/05/05 02:19:49;;;;;;;2.75;1.27;;;14.60;96.70;;;;;;4926084;29;20062;-74
2021/05/05 02:22:18;;;;;;;4.20;1.50;;;14.50;96.70;;;;;;4924917;29;20079;-74
2021/05/05 02:24:50;;;;;;;4.80;1.55;;;14.50;96.70;;;;;;4919247;29;20047;-74
2021/05/05 02:27:20;;;;;;;2.70;1.35;;;14.50;96.70;;;;;;4928437;29;20102;-75
2021/05/05 02:29:48;;;;;;;2.75;1.50;;;14.50;96.70;;;;;;4925139;28;20457;-74
2021/05/05 02:32:26;;;;;;;2.13;1.35;;;14.40;96.70;;;;;;4906574;29;20122;-75
2021/05/05 02:34:56;;;;;;;2.25;1.52;;;14.40;96.70;;;;;;4922382;29;20098;-74
2021/05/05 02:37:26;;;;;;;3.17;1.52;;;14.50;96.70;;;;;;4921999;29;20104;-74
2021/05/05 02:39:56;;;;;;;4.32;1.50;;;14.40;96.70;;;;;;4921995;29;20043;-74
2021/05/05 02:42:29;;;;;;;3.25;1.58;;;14.30;96.70;;;;;;4923851;29;20066;-74
2021/05/05 02:45:00;;;;;;;2.65;1.20;;;14.10;96.70;;;;;;4927543;29;20362;-74
2021/05/05 02:47:29;;;;;;;4.28;1.25;;;14.10;96.70;;;;;;4921869;29;20095;-74
2021/05/05 02:50:00;;;;;;;2.25;1.08;;;14.10;96.70;;;;;;4924441;29;20513;-75
2021/05/05 02:52:42;;;;;;;3.72;1.15;;;14.10;96.70;;;;;;4923545;29;20126;-74
2021/05/05 02:55:16;;;;;;;2.25;1.20;;;14.00;96.70;;;;;;4924215;29;20079;-75
2021/05/05 02:57:49;;;;;;;1.95;1.10;;;14.10;96.70;;;;;;4906490;29;20072;-75
2021/05/05 03:00:19;;;;;;;3.97;1.10;;;14.00;96.70;;;;;;4924525;29;20701;-75
2021/05/05 03:02:49;;;;;;;3.33;1.40;;;14.00;96.70;;;;;;4920150;29;20051;-75
2021/05/05 03:08:49;;;;;;;3.83;1.33;;;13.90;96.70;;;;;;4907809;29;20130;-74
2021/05/05 03:11:20;;;;;;;1.75;1.30;;;13.90;96.70;;;;;;4919395;29;20046;-75
2021/05/05 03:13:49;;;;;;;3.85;1.40;;;14.00;96.70;;;;;;4927605;28;20047;-75
2021/05/05 03:16:18;;;;;;;6.38;1.50;;;14.10;96.70;;;;;;4916417;29;20039;-74
2021/05/05 03:18:47;;;;;;;2.17;1.25;;;14.10;96.70;;;;;;4924536;29;20052;-74
2021/05/05 03:21:17;;;;;;;3.08;1.25;;;14.10;96.70;;;;;;4907171;29;20166;-74
2021/05/05 03:23:46;;;;;;;5.03;1.48;;;14.10;96.70;;;;;;4928580;29;20047;-75
2021/05/05 03:26:14;;;;;;;2.25;1.30;;;14.10;96.70;;;;;;4907719;29;20047;-75
2021/05/05 03:28:44;;;;;;;4.57;1.30;;;14.00;96.70;;;;;;4928984;29;20144;-74
2021/05/05 03:31:12;;;;;;;2.83;1.23;;;14.10;96.70;;;;;;4918570;29;20043;-74
2021/05/05 03:33:41;;;;;;;3.53;1.15;;;14.10;96.70;;;;;;4924403;29;20524;-75
2021/05/05 03:36:10;;;;;;;3.38;1.30;;;14.10;96.70;;;;;;4923563;29;20118;-74
2021/05/05 03:38:38;;;;;;;2.60;1.52;;;14.00;96.70;;;;;;4909577;29;20115;-74
2021/05/05 03:41:07;;;;;;;1.80;1.20;;;14.00;96.70;;;;;;4916989;29;20047;-74
2021/05/05 03:43:35;;;;;;;4.97;2.03;;;14.00;96.70;;;;;;4925696;29;20546;-74
2021/05/05 03:46:05;;;;;;;3.15;1.25;;;14.00;96.70;;;;;;4925958;29;20055;-75
2021/05/05 03:48:33;;;;;;;2.97;1.48;;;14.00;96.70;;;;;;4923158;29;20150;-74
2021/05/05 03:59:14;;;;;;;2.63;1.30;;;13.90;96.70;;;;;;4919122;29;20509;-74
2021/05/05 04:18:25;;;;;;;2.47;0.98;;;13.90;96.70;;;;;;4902408;29;20051;-74
2021/05/05 04:21:11;;;;;;;;;;;14.00;96.70;;;;;;4903194;29;20561;-75
2021/05/05 04:23:57;;;;;;;2.40;1.10;;;13.90;96.70;;;;;;4890004;29;19990;-74
2021/05/05 04:26:25;;;;;;;3.47;1.45;;;13.90;96.70;;;;;;4888796;29;20728;-74
2021/05/05 04:28:54;;;;;;;2.10;1.40;;;13.90;96.70;;;;;;4902166;29;20116;-74
2021/05/05 04:31:23;;;;;;;2.63;1.65;;;13.90;96.70;;;;;;4890909;29;20054;-74
2021/05/05 04:33:53;;;;;;;2.60;1.60;;;14.00;96.70;;;;;;4894408;29;20043;-74
2021/05/05 04:36:21;;;;;;;2.17;1.60;;;13.90;96.70;;;;;;4904393;29;20056;-74
2021/05/05 04:38:50;;;;;;;1.98;1.33;;;13.90;96.70;;;;;;4892756;29;20143;-74
2021/05/05 04:41:18;;;;;;;2.95;1.40;;;14.00;96.70;;;;;;4909000;29;20432;-75
2021/05/05 04:43:47;;;;;;;3.67;1.40;;;14.00;96.70;;;;;;4889486;29;20053;-74
2021/05/05 04:46:15;;;;;;;2.60;1.60;;;14.00;96.70;;;;;;4908090;29;20109;-74
2021/05/05 04:48:44;;;;;;;2.95;1.70;;;14.20;96.70;;;;;;4881953;29;20048;-74
2021/05/05 04:51:13;;;;;;;3.10;1.58;;;14.20;96.70;;;;;;4888475;29;20540;-74
2021/05/05 04:53:41;;;;;;;1.67;1.40;;;14.20;96.70;;;;;;4899392;28;20741;-74
2021/05/05 04:56:09;;;;;;;2.08;1.20;;;14.20;96.70;;;;;;4929837;28;20038;-75
2021/05/05 04:58:37;;;;;;;3.10;1.52;;;14.10;96.70;;;;;;4923045;28;20039;-74
2021/05/05 05:01:05;;;;;;;3.22;1.50;;;14.10;96.70;;;;;;4929256;28;20059;-74
2021/05/05 05:03:33;;;;;;;2.83;1.52;;;14.10;96.70;;;;;;4935678;28;20048;-74
2021/05/05 05:06:00;;;;;;;5.03;1.67;;;14.10;96.70;;;;;;4945456;28;20078;-74
2021/05/05 05:08:29;;;;;;;5.38;2.00;;;14.10;96.70;;;;;;4914215;28;20508;-74
2021/05/05 05:10:57;;;;;;;3.67;1.40;;;14.10;96.70;;;;;;4941920;28;20057;-74
2021/05/05 05:13:26;;;;;;;3.80;1.60;;;13.90;96.70;;;;;;4927145;28;20086;-74
2021/05/05 05:15:53;;;;;;;4.28;1.90;;;13.80;96.70;;;;;;4928226;28;20580;-74
2021/05/05 05:18:21;;;;;;;3.15;1.83;;;13.90;96.70;;;;;;4930380;28;20055;-74
2021/05/05 05:20:49;;;;;;;2.55;1.83;;;13.90;96.70;;;;;;4946789;28;20050;-74
2021/05/05 05:23:17;;;;;;;3.78;1.40;;;13.90;96.70;;;;;;4928982;28;20534;-74
2021/05/05 05:25:46;;;;;;;3.63;1.90;;;14.00;96.70;;;;;;4943921;28;20574;-75
2021/05/05 05:28:14;;;;;;;6.15;1.67;;;14.00;96.70;;;;;;4913790;28;20394;-74
2021/05/05 05:30:42;;;;;;;2.67;1.50;;;14.00;96.70;;;;;;4937089;28;20230;-75
2021/05/05 05:33:10;;;;;;;5.00;2.10;;;13.90;96.70;;;;;;4911073;29;20079;-74
2021/05/05 05:35:38;;;;;;;2.50;1.80;;;14.00;96.70;;;;;;4928604;29;20043;-74
2021/05/05 05:38:06;;;;;;;1.95;1.73;;;14.00;96.70;;;;;;4930772;28;20043;-74
2021/05/05 05:40:33;;;;;;;4.28;1.73;;;14.10;96.70;;;;;;4925933;29;20059;-74
2021/05/05 05:43:03;;;;;;;1.90;1.70;;;14.20;96.70;;;;;;4946695;28;20146;-74
2021/05/05 05:45:30;;;;;;;3.20;1.83;;;14.20;96.70;;;;;;4927103;28;20164;-74
2021/05/05 05:47:58;;;;;;;5.53;2.55;;;14.30;96.70;;;;;;4944741;28;20523;-74
2021/05/05 05:50:27;;;;;;;5.53;3.42;;;14.30;96.70;;;;;;4929551;29;20035;-74
2021/05/05 05:52:55;;;;;;;8.23;4.03;;;14.40;96.70;;;;;;4931000;29;20051;-75
2021/05/05 05:55:29;;;;;;;5.72;3.75;;;14.50;96.70;;;;;;4929332;28;20043;-74
2021/05/05 05:57:57;;;;;;;7.80;4.05;;;14.60;96.70;;;;;;4930950;28;20556;-74
2021/05/05 06:00:26;;;;;;;6.95;4.90;;;14.70;96.70;;;;;;4944448;28;20054;-75
2021/05/05 06:02:54;;;;;;;11.48;6.85;;;14.80;96.70;;;;;;4916093;29;20043;-77
2021/05/05 06:05:22;;;;;;;11.18;6.75;;;14.80;96.70;;;;;;4926639;29;20098;-76
2021/05/05 06:07:49;;;;;;;9.23;6.07;;;14.80;96.70;;;;;;4930312;29;20059;-76
2021/05/05 06:10:18;;;;;;;9.68;5.97;;;14.80;96.70;;;;;;4940933;28;20050;-75
2021/05/05 06:12:46;;;;;;;7.55;4.93;;;14.70;96.70;;;;;;4925906;28;20055;-75
2021/05/05 06:15:14;;;;;;;8.30;5.00;;;14.70;96.70;;;;;;4930377;28;20370;-75
2021/05/05 06:17:43;;;;;;;8.02;5.32;;;14.80;96.70;;;;;;4928887;29;20093;-75
2021/05/05 06:20:12;;;;;;;8.05;5.22;;;14.80;96.70;;;;;;4910373;29;20058;-74
2021/05/05 06:22:40;;;;;;;7.65;4.55;;;14.80;96.70;;;;;;4928356;29;20131;-75
2021/05/05 06:25:09;;;;;;;6.10;4.30;;;14.80;96.70;;;;;;4933842;28;20051;-74
2021/05/05 06:27:37;;;;;;;7.97;4.38;;;14.80;96.70;;;;;;4941090;28;20041;-74
2021/05/05 06:30:07;;;;;;;6.32;3.90;;;14.90;96.70;;;;;;4923301;28;20054;-75
2021/05/05 06:32:36;;;;;;;5.47;3.67;;;15.00;96.70;;;;;;4938746;28;20450;-74
2021/05/05 06:35:06;;;;;;;6.75;4.45;;;15.10;96.70;;;;;;4923918;28;20125;-74
2021/05/05 06:37:34;;;;;;;7.60;4.07;;;15.20;96.70;;;;;;4924061;28;20055;-75
2021/05/05 06:40:03;;;;;;;5.55;4.35;;;15.20;96.70;;;;;;4947022;28;20085;-75
2021/05/05 06:42:32;;;;;;;7.55;3.90;;;15.20;96.70;;;;;;4918845;28;20321;-74
2021/05/05 06:45:00;;;;;;;4.68;3.40;;;15.30;96.70;;;;;;4913099;28;20535;-74
2021/05/05 06:47:29;;;;;;;7.18;3.80;;;15.30;96.70;;;;;;4909213;28;20084;-75
2021/05/05 06:49:57;;;;;;;7.97;3.75;;;15.40;96.70;;;;;;4935618;28;20134;-74
2021/05/05 06:52:26;;;;;;;5.32;3.22;;;15.40;96.70;;;;;;4924475;28;20046;-74
2021/05/05 06:54:53;;;;;;;6.60;3.25;;;15.30;96.70;;;;;;4940924;28;20058;-75
2021/05/05 06:57:21;;;;;;;5.43;3.30;;;15.40;96.70;;;;;;4909809;28;20070;-75
2021/05/05 06:59:49;;;;;;;4.25;3.10;;;15.50;96.70;;;;;;4946166;28;20488;-74
2021/05/05 07:02:17;;;;;;;7.55;3.45;;;15.60;96.70;;;;;;4921800;28;20043;-75
2021/05/05 07:04:47;;;;;;;6.18;3.10;;;15.70;96.70;;;;;;4927235;28;20490;-75
2021/05/05 07:07:15;;;;;;;6.88;3.35;;;15.70;96.70;;;;;;4923563;29;20194;-74
2021/05/05 07:09:43;;;;;;;3.63;2.97;;;15.80;96.70;;;;;;4907492;29;20079;-74
2021/05/05 07:12:11;;;;;;;6.00;3.78;;;15.90;96.70;;;;;;4906031;29;20055;-74
2021/05/05 07:14:39;;;;;;;4.35;3.08;;;15.90;96.70;;;;;;4923049;29;20050;-73
2021/05/05 07:17:08;;;;;;;5.82;3.20;;;15.90;96.70;;;;;;4925433;29;20521;-74
2021/05/05 07:19:36;;;;;;;5.43;3.03;;;16.00;96.70;;;;;;4922688;29;20074;-74
2021/05/05 07:22:04;;;;;;;5.18;2.60;;;16.00;96.70;;;;;;4920000;29;20413;-75
2021/05/05 07:24:32;;;;;;;5.60;2.90;;;16.00;96.70;;;;;;4917985;29;20040;-76
2021/05/05 07:27:01;;;;;;;6.10;2.90;;;16.00;96.70;;;;;;4923547;29;20630;-75
2021/05/05 07:29:28;;;;;;;6.55;2.97;;;15.90;96.70;;;;;;4923536;29;20417;-75
2021/05/05 07:31:56;;;;;;;3.63;2.58;;;15.90;96.70;;;;;;4906936;29;20520;-74
2021/05/05 07:34:25;;;;;;;4.43;2.75;;;16.00;96.70;;;;;;4929422;29;20051;-75
2021/05/05 07:36:58;;;;;;;3.80;2.72;;;16.10;96.70;;;;;;4902302;29;20048;-75
2021/05/05 07:39:57;;;;;;;4.70;2.85;;;16.20;96.70;;;;;;4936256;28;20585;-75
2021/05/05 07:48:05;;;;;;;7.40;3.13;;;16.40;96.70;;;;;;4923069;29;20046;-75
2021/05/05 07:50:34;;;;;;;6.10;2.85;;;16.50;96.70;;;;;;4921944;29;20417;-74
2021/05/05 07:53:01;;;;;;;6.50;3.25;;;16.40;96.70;;;;;;4922984;29;20063;-74
2021/05/05 07:55:28;;;;;;;4.78;2.95;;;16.40;96.70;;;;;;4904945;29;20048;-73
2021/05/05 07:57:56;;;;;;;7.35;3.08;;;16.40;96.70;;;;;;4923937;29;20040;-74
2021/05/05 08:00:24;;;;;;;7.30;2.97;;;16.40;96.70;;;;;;4927527;29;20103;-75
2021/05/05 08:02:52;;;;;;;5.30;2.80;;;16.60;96.70;;;;;;4928385;28;20548;-74
2021/05/05 08:05:21;;;;;;;6.60;3.00;;;16.70;96.70;;;;;;4921419;29;20040;-74
2021/05/05 08:07:53;;;;;;;6.80;3.05;;;16.80;96.70;;;;;;4907702;29;20083;-74
2021/05/05 08:10:22;;;;;;;5.20;3.30;;;16.90;96.70;;;;;;4919585;29;20573;-74
2021/05/05 08:12:49;;;;;;;5.50;2.85;;;17.00;96.70;;;;;;4926680;29;20051;-73
2021/05/05 08:15:18;;;;;;;4.80;2.60;;;17.00;96.70;;;;;;4921570;29;20150;-76
2021/05/05 08:17:46;;;;;;;6.93;3.40;;;17.10;96.70;;;;;;4927415;29;20051;-74
2021/05/05 08:20:15;;;;;;;4.45;2.70;;;17.20;96.70;;;;;;4923032;28;20119;-75
2021/05/05 08:22:45;;;;;;;5.63;2.70;;;17.30;96.70;;;;;;4926184;29;20047;-75
2021/05/05 08:25:13;;;;;;;5.65;2.35;;;17.40;96.70;;;;;;4925307;29;20054;-74
2021/05/05 08:27:41;;;;;;;5.57;2.22;;;17.60;96.70;;;;;;4925301;29;20567;-73
2021/05/05 08:30:16;;;;;;;8.25;2.90;;;17.90;96.70;;;;;;4919052;29;20040;-74
2021/05/05 08:32:46;;;;;;;5.93;2.60;;;18.00;96.70;;;;;;4924019;29;20529;-75
2021/05/05 08:35:15;;;;;;;5.78;2.28;;;17.90;96.70;;;;;;4907710;29;20048;-75
2021/05/05 08:37:43;;;;;;;5.38;1.85;;;17.90;96.70;;;;;;4923070;29;20050;-75
2021/05/05 08:40:12;;;;;;;3.40;1.63;;;17.80;96.70;;;;;;4926218;29;20054;-73
2021/05/05 08:42:41;;;;;;;2.58;1.70;;;17.90;96.70;;;;;;4923539;28;20080;-74
2021/05/05 08:45:14;;;;;;;2.83;1.42;;;17.90;96.70;;;;;;4918494;29;20048;-74
2021/05/05 08:47:43;;;;;;;4.20;1.25;;;17.80;96.70;;;;;;4919961;29;20062;-74
2021/05/05 08:50:13;;;;;;;3.42;1.48;;;17.70;96.70;;;;;;4922034;28;20052;-74
2021/05/05 08:52:41;;;;;;;2.70;1.20;;;17.70;96.70;;;;;;4921034;29;20107;-75
2021/05/05 08:55:16;;;;;;;2.63;1.05;;;17.70;96.70;;;;;;4916877;29;20453;-75
2021/05/05 08:57:44;;;;;;;1.88;1.15;;;17.70;96.70;;;;;;4921084;29;20773;-74
2021/05/05 09:00:14;;;;;;;3.83;1.40;;;17.70;96.70;;;;;;4892920;29;20411;-75
2021/05/05 09:02:42;;;;;;;6.00;1.75;;;17.90;96.70;;;;;;4924093;29;20051;-75
2021/05/05 09:05:49;;;;;;;3.40;1.42;;;18.20;96.70;;;;;;4908507;29;20162;-75
2021/05/05 09:08:17;;;;;;;5.13;1.63;;;18.30;96.70;;;;;;4894276;29;20044;-75
2021/05/05 09:11:03;;;;;;;4.30;1.60;;;18.50;96.70;;;;;;4886753;29;20585;-74
2021/05/05 09:13:51;;;;;;;3.47;1.13;;;18.60;96.70;;;;;;4908342;29;20163;-74
2021/05/05 09:16:24;;;;;;;2.28;1.20;;;18.90;96.70;;;;;;4908953;29;20132;-75
2021/05/05 09:18:57;;;;;;;2.30;1.10;;;18.90;96.70;;;;;;4894100;29;20040;-74
2021/05/05 09:21:31;;;;;;;5.00;1.10;;;18.80;96.40;;;;;;4908529;29;20040;-74
2021/05/05 09:24:23;;;;;;;2.28;1.30;;;19.00;96.10;;;;;;4899815;29;20048;-75
2021/05/05 09:26:52;;;;;;;2.58;0.80;;;19.00;95.70;;;;;;4900327;29;20212;-74
2021/05/05 09:29:22;;;;;;;2.47;0.95;;;18.80;93.70;;;;;;4907703;29;20048;-74
2021/05/05 09:31:50;;;;;;;2.67;1.10;;;18.90;94.00;;;;;;4901480;29;20492;-75
2021/05/05 09:34:24;;;;;;;3.70;1.10;;;18.80;93.50;;;;;;4904349;29;20143;-74
2021/05/05 09:36:58;;;;;;;4.53;1.00;;;18.70;94.50;;;;;;4916207;29;20515;-75
2021/05/05 09:39:28;;;;;;;2.47;1.00;;;18.60;95.70;;;;;;4884746;29;20051;-74
2021/05/05 09:41:56;;;;;;;2.83;0.75;;;18.60;95.70;;;;;;4900979;29;20479;-73
2021/05/05 09:44:25;;;;;;;4.15;1.10;;;18.50;96.10;;;;;;4901259;29;20039;-73
2021/05/05 09:46:57;;;;;;;3.78;1.30;;;18.50;96.40;;;;;;4901898;29;20071;-74
2021/05/05 09:49:32;;;;;;;2.45;1.13;;;18.50;96.70;;;;;;4902391;29;20402;-74
2021/05/05 09:52:03;;;;;;;2.50;0.90;;;18.50;96.30;;;;;;4885828;29;20435;-75
2021/05/05 09:54:37;;;;;;;3.83;0.80;;;18.60;96.60;;;;;;4902620;29;20046;-74
2021/05/05 09:57:19;;;;;;;3.15;0.70;;;18.90;96.40;;;;;;4890682;29;20442;-73
2021/05/05 10:00:10;;;;;;;3.63;1.00;;;19.10;95.90;;;;;;4901012;29;20344;-75
2021/05/05 10:02:45;;;;;;;2.28;0.82;;;19.20;94.20;;;;;;4899129;29;20056;-75
2021/05/05 10:05:15;;;;;;;1.70;0.90;;;19.30;93.30;;;;;;4896261;29;20116;-74
2021/05/05 10:07:53;;;;;;;2.17;0.60;;;19.20;93.30;;;;;;4922279;29;20403;-73
2021/05/05 10:10:23;;;;;;;3.85;0.93;;;19.30;91.60;;;;;;4925496;29;20474;-74
2021/05/05 10:12:52;;;;;;;1.48;0.80;;;19.50;93.00;;;;;;4923042;29;20063;-74
2021/05/05 10:15:20;;;;;;;2.47;0.80;;;19.60;93.10;;;;;;4921509;29;20154;-73
2021/05/05 10:18:10;;;;;;;4.90;0.93;;;19.70;91.60;;;;;;4928741;29;20047;-75
2021/05/05 10:20:49;;;;;;;3.30;1.17;;;19.90;91.30;;;;;;4923669;29;20066;-75
2021/05/05 10:23:18;;;;;;;2.20;0.60;;;19.80;91.30;;;;;;4924144;29;20168;-75
2021/05/05 10:25:49;;;;;;;3.53;0.80;;;19.50;91.30;;;;;;4933328;29;20441;-74
2021/05/05 10:28:17;;;;;;;4.40;0.80;;;19.40;92.10;;;;;;4927503;29;20048;-75
2021/05/05 10:30:46;;;;;;;3.90;0.88;;;19.80;92.00;;;;;;4929816;29;20045;-75
2021/05/05 10:33:19;;;;;;;2.13;0.73;;;19.90;92.10;;;;;;4925385;28;20420;-76
2021/05/05 10:35:47;;;;;;;2.05;0.60;;;19.80;91.20;;;;;;4917841;29;20045;-75
2021/05/05 10:38:36;;;;;;;3.33;0.63;;;19.60;91.80;;;;;;4924602;29;20075;-75
2021/05/05 10:41:09;;;;;;;2.95;0.98;;;20.00;92.20;;;;;;4923209;29;20134;-76
2021/05/05 10:43:47;;;;;;;2.40;0.50;;;20.00;91.00;;;;;;4927269;29;20048;-77
2021/05/05 10:46:30;;;;;;;3.10;1.10;;;20.10;90.40;;;;;;4928371;29;20051;-76
2021/05/05 10:49:07;;;;;;;2.83;0.98;;;20.20;90.70;;;;;;4919523;29;20360;-77
2021/05/05 10:51:59;;;;;;;1.50;0.60;;;20.30;89.30;;;;;;4923668;29;20044;-76
2021/05/05 10:54:51;;;;;;;1.80;0.60;;;19.90;90.00;;;;;;4911064;29;20052;-77
2021/05/05 10:57:20;;;;;;;2.22;0.80;;;19.80;90.70;;;;;;4924413;29;20051;-77
2021/05/05 11:00:11;;;;;;;2.25;0.70;;;19.90;90.60;;;;;;4925639;29;20044;-76
2021/05/05 11:02:52;;;;;;;1.88;0.57;;;20.20;87.40;;;;;;4921948;29;20387;-77
2021/05/05 11:05:32;;;;;;;3.13;0.95;;;20.70;86.90;;;;;;4908115;29;20483;-77
2021/05/05 11:08:05;;;;;;;1.48;0.73;;;20.80;85.80;;;;;;4921826;29;20051;-78
2021/05/05 11:10:50;;;;;;;2.35;0.75;;;20.70;86.90;;;;;;4929502;29;20560;-77
2021/05/05 11:13:38;;;;;;;2.80;0.60;;;20.80;84.80;;;;;;4919948;29;20829;-77
2021/05/05 11:16:06;;;;;;;1.75;0.60;;;21.10;84.30;;;;;;4924596;29;20048;-78
2021/05/05 11:18:45;;;;;;;2.88;0.70;;;20.90;83.50;;;;;;4926282;29;20609;-83
2021/05/05 11:21:39;;;;;;;3.42;0.90;;;20.80;84.20;;;;;;4913360;29;20047;-76
2021/05/05 11:24:28;;;;;;;4.85;0.93;;;20.60;83.70;;;;;;4922570;29;20047;-77
2021/05/05 11:26:57;;;;;;;4.00;0.60;;;20.90;83.40;;;;;;4917742;29;20056;-75
2021/05/05 11:29:39;;;;;;;2.85;0.80;;;21.20;81.80;;;;;;4928065;29;20130;-76
2021/05/05 11:32:14;;;;;;;2.67;0.85;;;21.40;81.80;;;;;;4904838;29;20054;-77
2021/05/05 11:34:43;;;;;;;1.83;0.70;;;21.30;81.90;;;;;;4923638;29;20046;-84
2021/05/05 11:37:19;;;;;;;3.22;0.70;;;21.30;82.30;;;;;;4923036;29;20051;-76
2021/05/05 11:39:50;;;;;;;2.10;0.60;;;20.90;81.30;;;;;;4923374;29;20501;-78
2021/05/05 11:42:23;;;;;;;2.22;0.70;;;20.80;82.50;;;;;;4919253;29;20042;-78
2021/05/05 11:45:11;;;;;;;4.57;0.70;;;21.00;83.00;;;;;;4922657;29;20060;-77
2021/05/05 11:47:42;;;;;;;1.80;0.70;;;21.00;82.90;;;;;;4922011;29;20434;-78
2021/05/05 11:50:13;;;;;;;2.70;0.60;;;21.30;81.90;;;;;;4918447;29;20088;-78
2021/05/05 11:52:42;;;;;;;3.50;0.88;;;21.50;81.40;;;;;;4922147;29;20142;-78
2021/05/05 11:55:18;;;;;;;4.80;0.98;;;21.20;81.70;;;;;;4920456;29;20071;-78
2021/05/05 11:57:49;;;;;;;2.95;0.70;;;21.00;82.30;;;;;;4923883;29;20066;-76
2021/05/05 12:00:19;;;;;;;8.15;1.00;;;21.20;82.60;;;;;;4918209;29;20051;-78
2021/05/05 12:02:49;;;;;;;6.68;0.85;;;21.20;83.20;;;;;;4924618;29;20123;-78
2021/05/05 12:05:25;;;;;;;3.65;0.60;;;21.00;83.00;;;;;;4906471;29;20044;-76
2021/05/05 12:08:05;;;;;;;2.78;1.13;;;21.20;83.10;;;;;;4944491;28;20586;-76
2021/05/05 12:10:38;;;;;;;1.73;0.80;;;20.80;82.70;;;;;;4942795;28;20085;-75
2021/05/05 12:13:08;;;;;;;5.57;0.90;;;20.60;84.30;;;;;;4925075;28;20060;-75
2021/05/05 12:15:40;;;;;;;4.20;0.80;;;20.60;85.00;;;;;;4944397;28;20039;-75
2021/05/05 12:18:17;;;;;;;2.83;1.15;;;20.50;85.30;;;;;;4927199;28;20510;-76
2021/05/05 12:20:46;;;;;;;3.70;0.68;;;20.30;85.30;;;;;;4923757;28;20043;-78
2021/05/05 12:23:14;;;;;;;4.07;1.13;;;20.20;84.70;;;;;;4927969;28;20043;-76
2021/05/05 12:25:43;;;;;;;1.58;0.80;;;20.10;84.40;;;;;;4941113;28;20409;-75
2021/05/05 12:28:14;;;;;;;1.25;0.63;;;20.20;84.90;;;;;;4909429;28;20035;-76
2021/05/05 12:30:51;;;;;;;3.05;0.80;;;20.30;85.20;;;;;;4926338;28;20137;-75
2021/05/05 12:33:39;;;;;;;3.38;0.98;;;20.30;84.10;;;;;;4925530;28;20047;-76
2021/05/05 12:36:10;;;;;;;0.80;0.50;;;20.30;84.70;;;;;;4929783;28;20051;-76
2021/05/05 12:38:40;;;;;;;2.10;0.98;;;20.30;84.20;;;;;;4909056;28;20063;-75
2021/05/05 12:41:09;;;;;;;5.60;0.90;;;20.40;84.00;;;;;;4926979;28;20070;-76
2021/05/05 12:43:39;;;;;;;1.10;0.65;;;20.30;83.80;;;;;;4942922;28;20572;-75
2021/05/05 12:46:21;;;;;;;1.48;0.90;;;20.20;83.90;;;;;;4946274;28;20044;-75
2021/05/05 12:48:50;;;;;;;5.22;0.80;;;20.20;84.10;;;;;;4926390;28;20039;-75
2021/05/05 12:51:22;;;;;;;3.28;1.10;;;20.20;84.60;;;;;;4950347;28;20497;-75
2021/05/05 12:53:57;;;;;;;3.45;0.80;;;20.20;84.80;;;;;;4929557;28;20061;-76
2021/05/05 12:56:41;;;;;;;2.53;0.70;;;20.20;84.10;;;;;;4944922;28;20055;-76
2021/05/05 12:59:13;;;;;;;2.90;1.10;;;20.20;84.20;;;;;;4947566;28;20062;-75
2021/05/05 13:01:41;;;;;;;5.15;1.10;;;20.20;83.90;;;;;;4947052;28;20114;-76
2021/05/05 13:04:10;;;;;;;7.80;1.38;;;20.20;84.20;;;;;;4942828;28;20043;-75
2021/05/05 13:06:40;;;;;;;1.83;0.70;;;20.30;84.10;;;;;;4924527;28;20417;-77
2021/05/05 13:09:16;;;;;;;2.00;0.73;;;20.40;84.10;;;;;;4925855;28;20058;-76
2021/05/05 13:11:48;;;;;;;3.58;1.10;;;20.40;84.00;;;;;;4928912;28;20063;-77
2021/05/05 13:14:38;;;;;;;5.05;1.10;;;20.40;85.00;;;;;;4930280;29;20609;-75
2021/05/05 13:31:24;;;;;;;3.22;0.73;;;21.30;82.70;;;;;;4923890;28;20073;-75
2021/05/05 13:34:09;;;;;;;5.82;0.93;;;21.40;81.30;;;;;;4926595;29;20428;-75
2021/05/05 13:36:45;;;;;;;4.05;1.13;;;21.30;81.60;;;;;;4924133;29;20111;-76
2021/05/05 13:39:14;;;;;;;1.92;0.90;;;21.20;81.90;;;;;;4925161;28;20056;-75
2021/05/05 13:41:43;;;;;;;2.40;0.70;;;21.10;81.70;;;;;;4926059;28;20047;-75
2021/05/05 13:44:17;;;;;;;5.65;1.05;;;21.30;81.40;;;;;;4930049;28;20094;-76
2021/05/05 13:51:53;;;;;;;2.65;1.00;;;21.30;80.60;;;;;;4945742;28;20098;-75
2021/05/05 13:54:21;;;;;;;2.90;1.10;;;21.20;80.20;;;;;;4932855;28;20097;-76
2021/05/05 13:56:49;;;;;;;2.35;1.15;;;21.70;80.00;;;;;;4936855;28;20043;-76
2021/05/05 13:59:18;;;;;;;3.38;1.35;;;21.90;79.70;;;;;;4945035;28;20146;-76
2021/05/05 14:01:48;;;;;;;4.25;0.80;;;22.10;80.10;;;;;;4913438;29;20051;-75
2021/05/05 14:04:16;;;;;;;2.22;1.00;;;22.20;78.70;;;;;;4927269;28;20501;-76
2021/05/05 14:06:47;;;;;;;5.07;1.00;;;22.10;78.70;;;;;;4923093;29;20515;-76
2021/05/05 14:09:15;;;;;;;3.70;1.30;;;21.90;78.70;;;;;;4924905;29;20944;-75
2021/05/05 14:11:43;;;;;;;7.13;1.23;;;22.00;80.00;;;;;;4931119;29;20051;-77